Grand Etang, Canada
Current Conditions -  °F | °C
As of 3:00 AM on Wednesday 22 Oct 2014 (Local Time) from CYQY Reporting Station
Scattered Clouds Scattered Clouds  
Wind Chill: 36°   Ceiling: Unl
Heat Index: 36°   Visibility: 15mi
Dew Point: 36°   Wind: 3mph
Humidity: 100%   Direction: 320°NW
Pressure: 30.34"   Gusts: NA
Location:  46.55°N, 61.04°W
Report Text: CYQY 220600Z 32003KT 15SM SCT210 02/02 A3034 RMK CI4 SLP275
Loading
Personal Weather Stations






























Interactive Weather Map
Tropical Storm Tracking
New forecast layout! Learn more

10-Day Weather Forecast

Advertisements
Track Severe Weather on mobile